sensor_id;sensor_type;location;lat;lon;timestamp;temperature;humidity
65692;DHT22;52411;52.716;6.696;2024-01-15T00:01:54;1.90;99.90
65692;DHT22;52411;52.716;6.696;2024-01-15T00:04:20;1.90;99.90
65692;DHT22;52411;52.716;6.696;2024-01-15T00:06:45;1.90;99.90
65692;DHT22;52411;52.716;6.696;2024-01-15T00:09:11;1.90;99.90
65692;DHT22;52411;52.716;6.696;2024-01-15T00:11:36;1.90;99.90
65692;DHT22;52411;52.716;6.696;2024-01-15T00:14:02;1.90;99.90
65692;DHT22;52411;52.716;6.696;2024-01-15T00:16:28;2.00;99.90
65692;DHT22;52411;52.716;6.696;2024-01-15T00:18:54;2.10;99.90
65692;DHT22;52411;52.716;6.696;2024-01-15T00:21:19;2.10;99.90
65692;DHT22;52411;52.716;6.696;2024-01-15T00:23:45;2.10;99.90
65692;DHT22;52411;52.716;6.696;2024-01-15T00:26:11;2.20;99.90
65692;DHT22;52411;52.716;6.696;2024-01-15T00:28:37;2.20;99.90
65692;DHT22;52411;52.716;6.696;2024-01-15T00:31:04;2.20;99.90
65692;DHT22;52411;52.716;6.696;2024-01-15T00:33:30;2.20;99.90
65692;DHT22;52411;52.716;6.696;2024-01-15T00:35:55;2.20;99.90
65692;DHT22;52411;52.716;6.696;2024-01-15T00:38:21;2.10;99.90
65692;DHT22;52411;52.716;6.696;2024-01-15T00:40:46;2.10;99.90
65692;DHT22;52411;52.716;6.696;2024-01-15T00:43:12;2.10;99.90
65692;DHT22;52411;52.716;6.696;2024-01-15T00:45:37;2.00;99.90
65692;DHT22;52411;52.716;6.696;2024-01-15T00:48:04;2.10;99.90
65692;DHT22;52411;52.716;6.696;2024-01-15T00:50:30;2.20;99.90
65692;DHT22;52411;52.716;6.696;2024-01-15T00:52:55;2.20;99.90
65692;DHT22;52411;52.716;6.696;2024-01-15T00:55:21;2.30;99.90
65692;DHT22;52411;52.716;6.696;2024-01-15T00:57:46;2.30;99.90
65692;DHT22;52411;52.716;6.696;2024-01-15T01:00:12;2.30;99.90
65692;DHT22;52411;52.716;6.696;2024-01-15T01:02:38;2.20;99.90
65692;DHT22;52411;52.716;6.696;2024-01-15T01:05:04;2.20;99.90
65692;DHT22;52411;52.716;6.696;2024-01-15T01:07:29;2.20;99.90
65692;DHT22;52411;52.716;6.696;2024-01-15T01:09:55;2.20;99.90
65692;DHT22;52411;52.716;6.696;2024-01-15T01:12:20;2.20;99.90
65692;DHT22;52411;52.716;6.696;2024-01-15T01:14:46;2.20;99.90
65692;DHT22;52411;52.716;6.696;2024-01-15T01:17:12;2.30;99.90
65692;DHT22;52411;52.716;6.696;2024-01-15T01:19:37;2.20;99.90
65692;DHT22;52411;52.716;6.696;2024-01-15T01:22:03;2.20;99.90
65692;DHT22;52411;52.716;6.696;2024-01-15T01:24:29;2.20;99.90
65692;DHT22;52411;52.716;6.696;2024-01-15T01:26:54;2.30;99.90
65692;DHT22;52411;52.716;6.696;2024-01-15T01:29:20;2.20;99.90
65692;DHT22;52411;52.716;6.696;2024-01-15T01:31:45;2.20;99.90
65692;DHT22;52411;52.716;6.696;2024-01-15T01:34:14;2.10;99.90
65692;DHT22;52411;52.716;6.696;2024-01-15T01:36:40;2.10;99.90
65692;DHT22;52411;52.716;6.696;2024-01-15T01:39:05;2.00;99.90
65692;DHT22;52411;52.716;6.696;2024-01-15T01:41:31;2.00;99.90
65692;DHT22;52411;52.716;6.696;2024-01-15T01:43:57;2.00;99.90
65692;DHT22;52411;52.716;6.696;2024-01-15T01:46:23;2.00;99.90
65692;DHT22;52411;52.716;6.696;2024-01-15T01:48:49;2.10;99.90
65692;DHT22;52411;52.716;6.696;2024-01-15T01:51:14;2.10;99.90
65692;DHT22;52411;52.716;6.696;2024-01-15T01:53:40;2.10;99.90
65692;DHT22;52411;52.716;6.696;2024-01-15T01:56:07;2.20;99.90
65692;DHT22;52411;52.716;6.696;2024-01-15T01:58:33;2.10;99.90
65692;DHT22;52411;52.716;6.696;2024-01-15T02:00:59;2.10;99.90
65692;DHT22;52411;52.716;6.696;2024-01-15T02:03:27;2.10;99.90
65692;DHT22;52411;52.716;6.696;2024-01-15T02:05:53;2.00;99.90
65692;DHT22;52411;52.716;6.696;2024-01-15T02:08:19;1.90;99.90
65692;DHT22;52411;52.716;6.696;2024-01-15T02:10:45;1.90;99.90
65692;DHT22;52411;52.716;6.696;2024-01-15T02:13:10;1.80;99.90
65692;DHT22;52411;52.716;6.696;2024-01-15T02:15:36;1.80;99.90
65692;DHT22;52411;52.716;6.696;2024-01-15T02:18:03;1.80;99.90
65692;DHT22;52411;52.716;6.696;2024-01-15T02:20:30;1.80;99.90
65692;DHT22;52411;52.716;6.696;2024-01-15T02:23:13;1.90;99.90
65692;DHT22;52411;52.716;6.696;2024-01-15T02:25:43;1.90;99.90
65692;DHT22;52411;52.716;6.696;2024-01-15T02:28:14;1.90;99.90
65692;DHT22;52411;52.716;6.696;2024-01-15T02:30:41;2.00;99.90
65692;DHT22;52411;52.716;6.696;2024-01-15T02:33:08;2.00;99.90
65692;DHT22;52411;52.716;6.696;2024-01-15T02:35:35;2.10;99.90
65692;DHT22;52411;52.716;6.696;2024-01-15T02:38:04;2.20;99.90
65692;DHT22;52411;52.716;6.696;2024-01-15T02:40:30;2.20;99.90
65692;DHT22;52411;52.716;6.696;2024-01-15T02:42:55;2.20;99.90
65692;DHT22;52411;52.716;6.696;2024-01-15T02:45:22;2.20;99.90
65692;DHT22;52411;52.716;6.696;2024-01-15T02:47:48;2.30;99.90
65692;DHT22;52411;52.716;6.696;2024-01-15T02:50:13;2.30;99.90
65692;DHT22;52411;52.716;6.696;2024-01-15T02:52:39;2.30;99.90
65692;DHT22;52411;52.716;6.696;2024-01-15T02:55:05;2.20;99.90
65692;DHT22;52411;52.716;6.696;2024-01-15T02:57:30;2.30;99.90
65692;DHT22;52411;52.716;6.696;2024-01-15T02:59:56;2.20;99.90
65692;DHT22;52411;52.716;6.696;2024-01-15T03:02:22;2.20;99.90
65692;DHT22;52411;52.716;6.696;2024-01-15T03:04:47;2.20;99.90
65692;DHT22;52411;52.716;6.696;2024-01-15T03:07:13;2.20;99.90
65692;DHT22;52411;52.716;6.696;2024-01-15T03:09:38;2.20;99.90
65692;DHT22;52411;52.716;6.696;2024-01-15T03:12:04;2.20;99.90
65692;DHT22;52411;52.716;6.696;2024-01-15T03:14:30;2.30;99.90
65692;DHT22;52411;52.716;6.696;2024-01-15T03:16:56;2.30;99.90
65692;DHT22;52411;52.716;6.696;2024-01-15T03:19:21;2.30;99.90
65692;DHT22;52411;52.716;6.696;2024-01-15T03:21:47;2.20;99.90
65692;DHT22;52411;52.716;6.696;2024-01-15T03:24:12;2.20;99.90
65692;DHT22;52411;52.716;6.696;2024-01-15T03:26:38;2.10;99.90
65692;DHT22;52411;52.716;6.696;2024-01-15T03:29:04;2.10;99.90
65692;DHT22;52411;52.716;6.696;2024-01-15T03:31:29;2.10;99.90
65692;DHT22;52411;52.716;6.696;2024-01-15T03:33:55;2.10;99.90
65692;DHT22;52411;52.716;6.696;2024-01-15T03:36:21;2.00;99.90
65692;DHT22;52411;52.716;6.696;2024-01-15T03:38:46;1.90;99.90
65692;DHT22;52411;52.716;6.696;2024-01-15T03:41:12;2.00;99.90
65692;DHT22;52411;52.716;6.696;2024-01-15T03:43:38;2.00;99.90
65692;DHT22;52411;52.716;6.696;2024-01-15T03:46:03;1.90;99.90
65692;DHT22;52411;52.716;6.696;2024-01-15T03:48:30;1.90;99.90
65692;DHT22;52411;52.716;6.696;2024-01-15T03:50:55;1.90;99.90
65692;DHT22;52411;52.716;6.696;2024-01-15T03:53:21;1.90;99.90
65692;DHT22;52411;52.716;6.696;2024-01-15T03:55:46;1.90;99.90
65692;DHT22;52411;52.716;6.696;2024-01-15T03:58:12;2.00;99.90
65692;DHT22;52411;52.716;6.696;2024-01-15T04:00:40;2.10;99.90
65692;DHT22;52411;52.716;6.696;2024-01-15T04:03:06;2.20;99.90
65692;DHT22;52411;52.716;6.696;2024-01-15T04:05:31;2.20;99.90
65692;DHT22;52411;52.716;6.696;2024-01-15T04:07:57;2.20;99.90
65692;DHT22;52411;52.716;6.696;2024-01-15T04:10:22;2.20;99.90
65692;DHT22;52411;52.716;6.696;2024-01-15T04:12:48;2.20;99.90
65692;DHT22;52411;52.716;6.696;2024-01-15T04:15:13;2.20;99.90
65692;DHT22;52411;52.716;6.696;2024-01-15T04:17:39;2.20;99.90
65692;DHT22;52411;52.716;6.696;2024-01-15T04:20:05;2.10;99.90
65692;DHT22;52411;52.716;6.696;2024-01-15T04:22:32;2.10;99.90
65692;DHT22;52411;52.716;6.696;2024-01-15T04:24:58;2.10;99.90
65692;DHT22;52411;52.716;6.696;2024-01-15T04:27:24;2.10;99.90
65692;DHT22;52411;52.716;6.696;2024-01-15T04:29:50;2.10;99.90
65692;DHT22;52411;52.716;6.696;2024-01-15T04:32:15;2.10;99.90
65692;DHT22;52411;52.716;6.696;2024-01-15T04:34:41;2.10;99.90
65692;DHT22;52411;52.716;6.696;2024-01-15T04:37:06;2.10;99.90
65692;DHT22;52411;52.716;6.696;2024-01-15T04:39:32;2.10;99.90
65692;DHT22;52411;52.716;6.696;2024-01-15T04:41:57;2.20;99.90
65692;DHT22;52411;52.716;6.696;2024-01-15T04:44:23;2.30;99.90
65692;DHT22;52411;52.716;6.696;2024-01-15T04:46:48;2.20;99.90
65692;DHT22;52411;52.716;6.696;2024-01-15T04:49:14;2.20;99.90
65692;DHT22;52411;52.716;6.696;2024-01-15T04:51:39;2.20;99.90
65692;DHT22;52411;52.716;6.696;2024-01-15T04:54:05;2.20;99.90
65692;DHT22;52411;52.716;6.696;2024-01-15T04:56:30;2.20;99.90
65692;DHT22;52411;52.716;6.696;2024-01-15T04:58:56;2.20;99.90
65692;DHT22;52411;52.716;6.696;2024-01-15T05:01:21;2.20;99.90
65692;DHT22;52411;52.716;6.696;2024-01-15T05:03:47;2.20;99.90
65692;DHT22;52411;52.716;6.696;2024-01-15T05:06:13;2.20;99.90
65692;DHT22;52411;52.716;6.696;2024-01-15T05:08:38;2.30;99.90
65692;DHT22;52411;52.716;6.696;2024-01-15T05:11:04;2.30;99.90
65692;DHT22;52411;52.716;6.696;2024-01-15T05:13:29;2.30;99.90
65692;DHT22;52411;52.716;6.696;2024-01-15T05:15:55;2.40;99.90
65692;DHT22;52411;52.716;6.696;2024-01-15T05:18:20;2.30;99.90
65692;DHT22;52411;52.716;6.696;2024-01-15T05:20:46;2.30;99.90
65692;DHT22;52411;52.716;6.696;2024-01-15T05:23:11;2.20;99.90
65692;DHT22;52411;52.716;6.696;2024-01-15T05:25:37;2.20;99.90
65692;DHT22;52411;52.716;6.696;2024-01-15T05:28:03;2.10;99.90
65692;DHT22;52411;52.716;6.696;2024-01-15T05:30:28;2.00;99.90
65692;DHT22;52411;52.716;6.696;2024-01-15T05:32:54;1.90;99.90
65692;DHT22;52411;52.716;6.696;2024-01-15T05:35:19;1.90;99.90
65692;DHT22;52411;52.716;6.696;2024-01-15T05:37:45;1.80;99.90
65692;DHT22;52411;52.716;6.696;2024-01-15T05:40:12;1.80;99.90
65692;DHT22;52411;52.716;6.696;2024-01-15T05:42:39;1.70;99.90
65692;DHT22;52411;52.716;6.696;2024-01-15T05:45:05;1.70;99.90
65692;DHT22;52411;52.716;6.696;2024-01-15T05:47:31;1.70;99.90
65692;DHT22;52411;52.716;6.696;2024-01-15T05:49:57;1.70;99.90
65692;DHT22;52411;52.716;6.696;2024-01-15T05:52:23;1.70;99.90
65692;DHT22;52411;52.716;6.696;2024-01-15T05:54:49;1.70;99.90
65692;DHT22;52411;52.716;6.696;2024-01-15T05:57:15;1.70;99.90
65692;DHT22;52411;52.716;6.696;2024-01-15T05:59:40;1.80;99.90
65692;DHT22;52411;52.716;6.696;2024-01-15T06:02:06;1.80;99.90
65692;DHT22;52411;52.716;6.696;2024-01-15T06:04:32;1.70;99.90
65692;DHT22;52411;52.716;6.696;2024-01-15T06:06:57;1.80;99.90
65692;DHT22;52411;52.716;6.696;2024-01-15T06:09:23;1.80;99.90
65692;DHT22;52411;52.716;6.696;2024-01-15T06:11:48;1.80;99.90
65692;DHT22;52411;52.716;6.696;2024-01-15T06:14:14;1.80;99.90
65692;DHT22;52411;52.716;6.696;2024-01-15T06:16:40;1.80;99.90
65692;DHT22;52411;52.716;6.696;2024-01-15T06:19:05;1.90;99.90
65692;DHT22;52411;52.716;6.696;2024-01-15T06:21:31;1.80;99.90
65692;DHT22;52411;52.716;6.696;2024-01-15T06:23:56;1.80;99.90
65692;DHT22;52411;52.716;6.696;2024-01-15T06:26:22;1.80;99.90
65692;DHT22;52411;52.716;6.696;2024-01-15T06:28:48;1.70;99.90
65692;DHT22;52411;52.716;6.696;2024-01-15T06:31:14;1.70;99.90
65692;DHT22;52411;52.716;6.696;2024-01-15T06:33:40;1.70;99.90
65692;DHT22;52411;52.716;6.696;2024-01-15T06:36:06;1.70;99.90
65692;DHT22;52411;52.716;6.696;2024-01-15T06:38:31;1.60;99.90
65692;DHT22;52411;52.716;6.696;2024-01-15T06:40:57;1.60;99.90
65692;DHT22;52411;52.716;6.696;2024-01-15T06:43:22;1.60;99.90
65692;DHT22;52411;52.716;6.696;2024-01-15T06:45:48;1.60;99.90
65692;DHT22;52411;52.716;6.696;2024-01-15T06:48:14;1.70;99.90
65692;DHT22;52411;52.716;6.696;2024-01-15T06:50:42;1.70;99.90
65692;DHT22;52411;52.716;6.696;2024-01-15T06:53:07;1.70;99.90
65692;DHT22;52411;52.716;6.696;2024-01-15T06:55:33;1.60;99.90
65692;DHT22;52411;52.716;6.696;2024-01-15T06:57:58;1.60;99.90
65692;DHT22;52411;52.716;6.696;2024-01-15T07:00:24;1.50;99.90
65692;DHT22;52411;52.716;6.696;2024-01-15T07:02:50;1.50;99.90
65692;DHT22;52411;52.716;6.696;2024-01-15T07:05:15;1.50;99.90
65692;DHT22;52411;52.716;6.696;2024-01-15T07:07:41;1.40;99.90
65692;DHT22;52411;52.716;6.696;2024-01-15T07:10:07;1.40;99.90
65692;DHT22;52411;52.716;6.696;2024-01-15T07:12:32;1.40;99.90
65692;DHT22;52411;52.716;6.696;2024-01-15T07:14:59;1.30;99.90
65692;DHT22;52411;52.716;6.696;2024-01-15T07:17:24;1.30;99.90
65692;DHT22;52411;52.716;6.696;2024-01-15T07:19:50;1.30;99.90
65692;DHT22;52411;52.716;6.696;2024-01-15T07:22:15;1.30;99.90
65692;DHT22;52411;52.716;6.696;2024-01-15T07:24:43;1.30;99.90
65692;DHT22;52411;52.716;6.696;2024-01-15T07:27:09;1.40;99.90
65692;DHT22;52411;52.716;6.696;2024-01-15T07:29:35;1.40;99.90
65692;DHT22;52411;52.716;6.696;2024-01-15T07:32:03;1.50;99.90
65692;DHT22;52411;52.716;6.696;2024-01-15T07:34:29;1.50;99.90
65692;DHT22;52411;52.716;6.696;2024-01-15T07:36:54;1.50;99.90
65692;DHT22;52411;52.716;6.696;2024-01-15T07:39:20;1.50;99.90
65692;DHT22;52411;52.716;6.696;2024-01-15T07:41:45;1.50;99.90
65692;DHT22;52411;52.716;6.696;2024-01-15T07:44:11;1.40;99.90
65692;DHT22;52411;52.716;6.696;2024-01-15T07:46:36;1.50;99.90
65692;DHT22;52411;52.716;6.696;2024-01-15T07:49:02;1.50;99.90
65692;DHT22;52411;52.716;6.696;2024-01-15T07:51:28;1.40;99.90
65692;DHT22;52411;52.716;6.696;2024-01-15T07:53:54;1.40;99.90
65692;DHT22;52411;52.716;6.696;2024-01-15T07:56:23;1.50;99.90
65692;DHT22;52411;52.716;6.696;2024-01-15T07:58:49;1.40;99.90
65692;DHT22;52411;52.716;6.696;2024-01-15T08:01:14;1.30;99.90
65692;DHT22;52411;52.716;6.696;2024-01-15T08:03:40;1.30;99.90
65692;DHT22;52411;52.716;6.696;2024-01-15T08:06:06;1.30;99.90
65692;DHT22;52411;52.716;6.696;2024-01-15T08:08:31;1.30;99.90
65692;DHT22;52411;52.716;6.696;2024-01-15T08:10:57;1.20;99.90
65692;DHT22;52411;52.716;6.696;2024-01-15T08:13:22;1.30;99.90
65692;DHT22;52411;52.716;6.696;2024-01-15T08:15:48;1.40;99.90
65692;DHT22;52411;52.716;6.696;2024-01-15T08:18:14;1.40;99.90
65692;DHT22;52411;52.716;6.696;2024-01-15T08:20:39;1.40;99.90
65692;DHT22;52411;52.716;6.696;2024-01-15T08:23:05;1.40;99.90
65692;DHT22;52411;52.716;6.696;2024-01-15T08:25:30;1.40;99.90
65692;DHT22;52411;52.716;6.696;2024-01-15T08:27:57;1.40;99.90
65692;DHT22;52411;52.716;6.696;2024-01-15T08:30:23;1.40;99.90
65692;DHT22;52411;52.716;6.696;2024-01-15T08:32:56;1.40;99.90
65692;DHT22;52411;52.716;6.696;2024-01-15T08:35:22;1.40;99.90
65692;DHT22;52411;52.716;6.696;2024-01-15T08:37:57;1.40;99.90
65692;DHT22;52411;52.716;6.696;2024-01-15T08:40:23;1.40;99.90
65692;DHT22;52411;52.716;6.696;2024-01-15T08:42:49;1.40;99.90
65692;DHT22;52411;52.716;6.696;2024-01-15T08:45:15;1.50;99.90
65692;DHT22;52411;52.716;6.696;2024-01-15T08:47:40;1.50;99.90
65692;DHT22;52411;52.716;6.696;2024-01-15T08:50:07;1.60;99.90
65692;DHT22;52411;52.716;6.696;2024-01-15T08:52:35;1.70;99.90
65692;DHT22;52411;52.716;6.696;2024-01-15T08:55:01;1.70;99.90
65692;DHT22;52411;52.716;6.696;2024-01-15T08:57:27;1.80;99.90
65692;DHT22;52411;52.716;6.696;2024-01-15T08:59:53;1.90;99.90
65692;DHT22;52411;52.716;6.696;2024-01-15T09:02:19;1.90;99.90
65692;DHT22;52411;52.716;6.696;2024-01-15T09:04:46;1.90;99.90
65692;DHT22;52411;52.716;6.696;2024-01-15T09:07:11;1.90;99.90
65692;DHT22;52411;52.716;6.696;2024-01-15T09:09:37;2.00;99.90
65692;DHT22;52411;52.716;6.696;2024-01-15T09:12:02;1.90;99.90
65692;DHT22;52411;52.716;6.696;2024-01-15T09:14:28;2.00;99.90
65692;DHT22;52411;52.716;6.696;2024-01-15T09:16:54;2.00;99.90
65692;DHT22;52411;52.716;6.696;2024-01-15T09:19:20;2.00;99.90
65692;DHT22;52411;52.716;6.696;2024-01-15T09:21:45;2.00;99.90
65692;DHT22;52411;52.716;6.696;2024-01-15T09:24:11;2.00;99.90
65692;DHT22;52411;52.716;6.696;2024-01-15T09:26:36;1.90;99.90
65692;DHT22;52411;52.716;6.696;2024-01-15T09:29:02;1.90;99.90
65692;DHT22;52411;52.716;6.696;2024-01-15T09:31:28;2.00;99.90
65692;DHT22;52411;52.716;6.696;2024-01-15T09:33:54;2.10;99.90
65692;DHT22;52411;52.716;6.696;2024-01-15T09:36:22;2.10;99.90
65692;DHT22;52411;52.716;6.696;2024-01-15T09:38:48;2.20;99.90
65692;DHT22;52411;52.716;6.696;2024-01-15T09:41:14;2.20;99.90
65692;DHT22;52411;52.716;6.696;2024-01-15T09:43:40;2.10;99.90
65692;DHT22;52411;52.716;6.696;2024-01-15T09:46:06;2.00;99.90
65692;DHT22;52411;52.716;6.696;2024-01-15T09:48:32;2.00;99.90
65692;DHT22;52411;52.716;6.696;2024-01-15T09:51:01;2.00;99.90
65692;DHT22;52411;52.716;6.696;2024-01-15T09:53:27;2.00;99.90
65692;DHT22;52411;52.716;6.696;2024-01-15T09:55:53;1.90;99.90
65692;DHT22;52411;52.716;6.696;2024-01-15T09:58:18;1.90;99.90
65692;DHT22;52411;52.716;6.696;2024-01-15T10:00:44;2.00;99.90
65692;DHT22;52411;52.716;6.696;2024-01-15T10:03:10;2.00;99.90
65692;DHT22;52411;52.716;6.696;2024-01-15T10:05:37;2.00;99.90
65692;DHT22;52411;52.716;6.696;2024-01-15T10:08:03;2.10;99.90
65692;DHT22;52411;52.716;6.696;2024-01-15T10:10:29;2.10;99.90
65692;DHT22;52411;52.716;6.696;2024-01-15T10:12:55;2.20;99.90
65692;DHT22;52411;52.716;6.696;2024-01-15T10:15:25;2.20;99.90
65692;DHT22;52411;52.716;6.696;2024-01-15T10:17:51;2.20;99.90
65692;DHT22;52411;52.716;6.696;2024-01-15T10:20:17;2.30;99.90
65692;DHT22;52411;52.716;6.696;2024-01-15T10:22:44;2.30;99.90
65692;DHT22;52411;52.716;6.696;2024-01-15T10:25:12;2.40;99.90
65692;DHT22;52411;52.716;6.696;2024-01-15T10:27:38;2.50;99.90
65692;DHT22;52411;52.716;6.696;2024-01-15T10:30:04;2.70;99.90
65692;DHT22;52411;52.716;6.696;2024-01-15T10:32:31;2.60;99.90
65692;DHT22;52411;52.716;6.696;2024-01-15T10:34:57;2.60;99.90
65692;DHT22;52411;52.716;6.696;2024-01-15T10:37:24;2.50;99.90
65692;DHT22;52411;52.716;6.696;2024-01-15T10:39:49;2.50;99.90
65692;DHT22;52411;52.716;6.696;2024-01-15T10:42:15;2.60;99.90
65692;DHT22;52411;52.716;6.696;2024-01-15T10:44:43;2.60;99.90
65692;DHT22;52411;52.716;6.696;2024-01-15T10:47:09;2.50;99.90
65692;DHT22;52411;52.716;6.696;2024-01-15T10:49:34;2.60;99.90
65692;DHT22;52411;52.716;6.696;2024-01-15T10:52:01;2.60;99.90
65692;DHT22;52411;52.716;6.696;2024-01-15T10:54:27;2.60;99.90
65692;DHT22;52411;52.716;6.696;2024-01-15T10:56:53;2.60;99.90
65692;DHT22;52411;52.716;6.696;2024-01-15T10:59:20;2.70;99.90
65692;DHT22;52411;52.716;6.696;2024-01-15T11:01:48;2.70;99.90
65692;DHT22;52411;52.716;6.696;2024-01-15T11:04:14;2.80;99.90
65692;DHT22;52411;52.716;6.696;2024-01-15T11:06:46;2.90;99.90
65692;DHT22;52411;52.716;6.696;2024-01-15T11:09:12;2.80;99.90
65692;DHT22;52411;52.716;6.696;2024-01-15T11:11:44;2.90;99.90
65692;DHT22;52411;52.716;6.696;2024-01-15T11:14:10;2.80;99.90
65692;DHT22;52411;52.716;6.696;2024-01-15T11:16:55;2.90;99.90
65692;DHT22;52411;52.716;6.696;2024-01-15T11:19:22;3.00;99.90
65692;DHT22;52411;52.716;6.696;2024-01-15T11:21:48;3.10;99.90
65692;DHT22;52411;52.716;6.696;2024-01-15T11:24:34;3.10;99.90
65692;DHT22;52411;52.716;6.696;2024-01-15T11:27:00;3.00;99.90
65692;DHT22;52411;52.716;6.696;2024-01-15T11:29:31;3.00;99.90
65692;DHT22;52411;52.716;6.696;2024-01-15T11:31:59;2.90;99.90
65692;DHT22;52411;52.716;6.696;2024-01-15T11:34:58;2.90;99.90
65692;DHT22;52411;52.716;6.696;2024-01-15T11:37:26;2.90;99.90
65692;DHT22;52411;52.716;6.696;2024-01-15T11:40:00;2.80;99.90
65692;DHT22;52411;52.716;6.696;2024-01-15T11:42:26;2.80;99.90
65692;DHT22;52411;52.716;6.696;2024-01-15T11:44:53;2.80;99.90
65692;DHT22;52411;52.716;6.696;2024-01-15T11:50:03;2.80;99.90
65692;DHT22;52411;52.716;6.696;2024-01-15T11:52:39;2.90;99.90
65692;DHT22;52411;52.716;6.696;2024-01-15T11:55:11;2.80;99.90
65692;DHT22;52411;52.716;6.696;2024-01-15T12:00:11;2.70;99.90
65692;DHT22;52411;52.716;6.696;2024-01-15T12:02:41;2.70;99.90
65692;DHT22;52411;52.716;6.696;2024-01-15T12:05:08;2.70;99.90
65692;DHT22;52411;52.716;6.696;2024-01-15T12:07:33;2.70;99.90
65692;DHT22;52411;52.716;6.696;2024-01-15T12:10:00;2.80;99.90
65692;DHT22;52411;52.716;6.696;2024-01-15T12:12:54;2.80;99.90
65692;DHT22;52411;52.716;6.696;2024-01-15T12:15:22;3.00;99.90
65692;DHT22;52411;52.716;6.696;2024-01-15T12:17:48;3.10;99.90
65692;DHT22;52411;52.716;6.696;2024-01-15T12:20:14;3.10;99.90
65692;DHT22;52411;52.716;6.696;2024-01-15T12:22:41;3.10;99.90
65692;DHT22;52411;52.716;6.696;2024-01-15T12:25:07;3.00;99.90
65692;DHT22;52411;52.716;6.696;2024-01-15T12:27:33;2.90;99.90
65692;DHT22;52411;52.716;6.696;2024-01-15T12:29:58;2.70;99.90
65692;DHT22;52411;52.716;6.696;2024-01-15T12:32:24;2.50;99.90
65692;DHT22;52411;52.716;6.696;2024-01-15T12:34:50;2.30;99.90
65692;DHT22;52411;52.716;6.696;2024-01-15T12:37:19;2.10;99.90
65692;DHT22;52411;52.716;6.696;2024-01-15T12:39:47;2.10;99.90
65692;DHT22;52411;52.716;6.696;2024-01-15T12:42:17;2.00;99.90
65692;DHT22;52411;52.716;6.696;2024-01-15T12:44:44;2.00;99.90
65692;DHT22;52411;52.716;6.696;2024-01-15T12:47:10;2.00;99.90
65692;DHT22;52411;52.716;6.696;2024-01-15T12:49:39;2.10;99.90
65692;DHT22;52411;52.716;6.696;2024-01-15T12:52:10;2.10;99.90
65692;DHT22;52411;52.716;6.696;2024-01-15T12:54:36;2.10;99.90
65692;DHT22;52411;52.716;6.696;2024-01-15T12:57:01;2.20;99.90
65692;DHT22;52411;52.716;6.696;2024-01-15T12:59:29;2.20;99.90
65692;DHT22;52411;52.716;6.696;2024-01-15T13:01:55;2.20;99.90
65692;DHT22;52411;52.716;6.696;2024-01-15T13:04:22;2.30;99.90
65692;DHT22;52411;52.716;6.696;2024-01-15T13:06:48;2.40;99.90
65692;DHT22;52411;52.716;6.696;2024-01-15T13:09:14;2.40;99.90
65692;DHT22;52411;52.716;6.696;2024-01-15T13:11:40;2.40;99.90
65692;DHT22;52411;52.716;6.696;2024-01-15T13:14:06;2.40;99.90
65692;DHT22;52411;52.716;6.696;2024-01-15T13:16:32;2.40;99.90
65692;DHT22;52411;52.716;6.696;2024-01-15T13:18:57;2.40;99.90
65692;DHT22;52411;52.716;6.696;2024-01-15T13:21:24;2.40;99.90
65692;DHT22;52411;52.716;6.696;2024-01-15T13:23:50;2.60;99.90
65692;DHT22;52411;52.716;6.696;2024-01-15T13:26:15;2.70;99.90
65692;DHT22;52411;52.716;6.696;2024-01-15T13:28:43;2.90;99.90
65692;DHT22;52411;52.716;6.696;2024-01-15T13:31:09;2.90;99.90
65692;DHT22;52411;52.716;6.696;2024-01-15T13:33:34;2.90;99.90
65692;DHT22;52411;52.716;6.696;2024-01-15T13:36:00;2.90;99.90
65692;DHT22;52411;52.716;6.696;2024-01-15T13:38:25;2.90;99.90
65692;DHT22;52411;52.716;6.696;2024-01-15T13:40:53;2.90;99.90
65692;DHT22;52411;52.716;6.696;2024-01-15T13:43:20;3.00;99.90
65692;DHT22;52411;52.716;6.696;2024-01-15T13:45:46;3.00;99.90
65692;DHT22;52411;52.716;6.696;2024-01-15T13:48:12;3.00;99.90
65692;DHT22;52411;52.716;6.696;2024-01-15T13:50:37;2.90;99.90
65692;DHT22;52411;52.716;6.696;2024-01-15T13:53:03;2.90;99.90
65692;DHT22;52411;52.716;6.696;2024-01-15T13:55:29;2.90;99.90
65692;DHT22;52411;52.716;6.696;2024-01-15T13:57:55;2.90;99.90
65692;DHT22;52411;52.716;6.696;2024-01-15T14:00:21;3.00;99.90
65692;DHT22;52411;52.716;6.696;2024-01-15T14:02:47;2.90;99.90
65692;DHT22;52411;52.716;6.696;2024-01-15T14:05:13;2.90;99.90
65692;DHT22;52411;52.716;6.696;2024-01-15T14:07:39;2.90;99.90
65692;DHT22;52411;52.716;6.696;2024-01-15T14:10:05;2.90;99.90
65692;DHT22;52411;52.716;6.696;2024-01-15T14:12:34;2.90;99.90
65692;DHT22;52411;52.716;6.696;2024-01-15T14:15:00;2.90;99.90
65692;DHT22;52411;52.716;6.696;2024-01-15T14:17:27;2.90;99.90
65692;DHT22;52411;52.716;6.696;2024-01-15T14:19:52;2.90;99.90
65692;DHT22;52411;52.716;6.696;2024-01-15T14:22:18;2.90;99.90
65692;DHT22;52411;52.716;6.696;2024-01-15T14:24:43;3.00;99.90
65692;DHT22;52411;52.716;6.696;2024-01-15T14:27:09;3.10;99.90
65692;DHT22;52411;52.716;6.696;2024-01-15T14:29:35;3.20;99.90
65692;DHT22;52411;52.716;6.696;2024-01-15T14:32:01;3.20;99.90
65692;DHT22;52411;52.716;6.696;2024-01-15T14:34:27;3.30;99.90
65692;DHT22;52411;52.716;6.696;2024-01-15T14:36:52;3.30;99.90
65692;DHT22;52411;52.716;6.696;2024-01-15T14:39:22;3.30;99.90
65692;DHT22;52411;52.716;6.696;2024-01-15T14:41:48;3.40;99.90
65692;DHT22;52411;52.716;6.696;2024-01-15T14:44:14;3.60;99.90
65692;DHT22;52411;52.716;6.696;2024-01-15T14:46:40;3.70;99.90
65692;DHT22;52411;52.716;6.696;2024-01-15T14:49:05;3.60;99.90
65692;DHT22;52411;52.716;6.696;2024-01-15T14:51:31;3.40;99.90
65692;DHT22;52411;52.716;6.696;2024-01-15T14:53:57;3.10;99.90
65692;DHT22;52411;52.716;6.696;2024-01-15T14:56:23;2.90;99.90
65692;DHT22;52411;52.716;6.696;2024-01-15T14:58:48;2.70;99.90
65692;DHT22;52411;52.716;6.696;2024-01-15T15:01:14;2.60;99.90
65692;DHT22;52411;52.716;6.696;2024-01-15T15:03:40;2.50;99.90
65692;DHT22;52411;52.716;6.696;2024-01-15T15:06:06;2.40;99.90
65692;DHT22;52411;52.716;6.696;2024-01-15T15:08:35;2.30;99.90
65692;DHT22;52411;52.716;6.696;2024-01-15T15:11:02;2.40;99.90
65692;DHT22;52411;52.716;6.696;2024-01-15T15:13:27;2.50;99.90
65692;DHT22;52411;52.716;6.696;2024-01-15T15:15:53;2.60;99.90
65692;DHT22;52411;52.716;6.696;2024-01-15T15:18:20;2.70;99.90
65692;DHT22;52411;52.716;6.696;2024-01-15T15:20:47;2.90;99.90
65692;DHT22;52411;52.716;6.696;2024-01-15T15:23:12;3.00;99.90
65692;DHT22;52411;52.716;6.696;2024-01-15T15:25:38;3.00;99.90
65692;DHT22;52411;52.716;6.696;2024-01-15T15:28:03;3.00;99.90
65692;DHT22;52411;52.716;6.696;2024-01-15T15:30:31;2.90;99.90
65692;DHT22;52411;52.716;6.696;2024-01-15T15:32:56;2.90;99.90
65692;DHT22;52411;52.716;6.696;2024-01-15T15:35:22;2.80;99.90
65692;DHT22;52411;52.716;6.696;2024-01-15T15:37:48;2.80;99.90
65692;DHT22;52411;52.716;6.696;2024-01-15T15:40:13;2.80;99.90
65692;DHT22;52411;52.716;6.696;2024-01-15T15:42:39;2.70;99.90
65692;DHT22;52411;52.716;6.696;2024-01-15T15:45:05;2.40;99.90